Time;durP1;ratioP1;P1;durP2;ratioP2;P2;SDS_P1;SDS_P2;PMS_P1;PMS_P2;Temp;Humidity;BMP_temperature;BMP_pressure;BME280_temperature;BME280_humidity;BME280_pressure;Samples;Min_cycle;Max_cycle;Signal;HPM_P1;HPM_P2
2022/08/15 00:00:35;;;;;;;1.88;1.50;;;26.30;49.50;;;;;;5018756;28;87459;-83
2022/08/15 00:03:03;;;;;;;1.77;1.60;;;26.30;49.50;;;;;;5018587;28;87709;-83
2022/08/15 00:05:33;;;;;;;2.17;1.80;;;26.30;49.60;;;;;;5018995;27;87145;-83
2022/08/15 00:07:59;;;;;;;1.85;1.67;;;26.30;50.20;;;;;;5017474;28;90665;-82
2022/08/15 00:10:25;;;;;;;1.40;1.30;;;26.30;49.40;;;;;;5018946;27;88575;-83
2022/08/15 00:12:51;;;;;;;1.83;1.70;;;26.30;49.50;;;;;;5018874;27;87321;-83
2022/08/15 00:15:19;;;;;;;2.75;1.70;;;26.30;49.60;;;;;;5018264;28;88184;-83
2022/08/15 00:17:47;;;;;;;1.55;1.45;;;26.30;49.70;;;;;;5016515;28;89590;-83
2022/08/15 00:20:13;;;;;;;1.63;1.50;;;26.30;49.60;;;;;;5033819;28;92974;-83
2022/08/15 00:22:48;;;;;;;1.63;1.45;;;26.30;49.60;;;;;;5017605;28;87508;-83
2022/08/15 00:25:15;;;;;;;2.50;1.80;;;26.30;49.70;;;;;;5017521;28;87204;-83
2022/08/15 00:27:41;;;;;;;1.60;1.50;;;26.30;49.70;;;;;;5017470;27;88775;-82
2022/08/15 00:30:08;;;;;;;2.45;1.67;;;26.30;49.60;;;;;;5018504;27;87850;-82
2022/08/15 00:32:36;;;;;;;2.83;1.88;;;26.30;49.70;;;;;;5017922;27;87069;-83
2022/08/15 00:35:35;;;;;;;2.73;1.47;;;26.30;49.70;;;;;;5017330;28;90028;-83
2022/08/15 00:37:55;;;;;;;2.30;1.63;;;26.30;49.60;;;;;;5017689;28;93980;-83
2022/08/15 00:40:23;;;;;;;3.25;1.90;;;26.30;49.80;;;;;;5032792;27;90940;-83
2022/08/15 00:42:49;;;;;;;1.73;1.63;;;26.20;49.90;;;;;;5016139;28;87836;-83
2022/08/15 00:45:14;;;;;;;1.80;1.55;;;26.20;49.80;;;;;;5020835;28;87460;-83
2022/08/15 00:47:42;;;;;;;1.75;1.63;;;26.30;49.80;;;;;;5020778;27;88487;-83
2022/08/15 00:50:15;;;;;;;3.45;1.90;;;26.30;49.80;;;;;;5022429;28;88188;-83
2022/08/15 00:52:40;;;;;;;1.58;1.42;;;26.30;49.90;;;;;;5021571;28;86911;-83
2022/08/15 00:55:11;;;;;;;1.80;1.60;;;26.30;49.80;;;;;;5020647;27;87631;-83
2022/08/15 00:57:41;;;;;;;2.40;1.77;;;26.20;49.80;;;;;;5036253;27;91933;-82
2022/08/15 01:00:13;;;;;;;2.13;1.75;;;26.20;49.90;;;;;;5021637;27;87382;-83
2022/08/15 01:02:39;;;;;;;2.90;1.73;;;26.20;49.80;;;;;;5020060;27;87318;-83
2022/08/15 01:05:09;;;;;;;1.90;1.80;;;26.20;49.80;;;;;;5021582;28;87747;-83
2022/08/15 01:07:35;;;;;;;1.80;1.70;;;26.20;49.70;;;;;;5020704;27;90040;-83
2022/08/15 01:10:02;;;;;;;1.73;1.63;;;26.20;49.60;;;;;;5020546;27;89055;-83
2022/08/15 01:12:27;;;;;;;2.28;1.70;;;26.20;49.60;;;;;;5019969;27;87514;-83
2022/08/15 01:14:57;;;;;;;2.28;1.92;;;26.30;49.70;;;;;;5020768;27;87368;-83
2022/08/15 01:17:26;;;;;;;1.80;1.65;;;26.20;49.70;;;;;;5019091;27;89062;-83
2022/08/15 01:19:51;;;;;;;1.80;1.63;;;26.20;50.30;;;;;;5022073;28;87061;-83
2022/08/15 01:22:32;;;;;;;1.67;1.58;;;26.20;49.70;;;;;;5020276;28;92899;-83
2022/08/15 01:25:25;;;;;;;1.63;1.45;;;26.20;49.70;;;;;;5016468;27;89274;-83
2022/08/15 01:28:17;;;;;;;1.77;1.67;;;26.20;49.90;;;;;;5012862;28;87749;-83
2022/08/15 01:30:51;;;;;;;2.17;1.73;;;26.20;50.00;;;;;;5021577;28;87826;-83
2022/08/15 01:33:17;;;;;;;2.53;1.80;;;26.20;50.00;;;;;;5018654;28;88023;-83
2022/08/15 01:35:45;;;;;;;2.28;1.70;;;26.20;49.80;;;;;;5020402;27;86897;-83
2022/08/15 01:38:37;;;;;;;2.67;1.60;;;26.20;49.90;;;;;;5022006;28;87304;-82
2022/08/15 01:41:21;;;;;;;2.00;1.50;;;26.20;49.70;;;;;;5020224;28;90907;-83
2022/08/15 01:43:58;;;;;;;1.60;1.50;;;26.20;49.80;;;;;;5020269;28;87088;-83
2022/08/15 01:46:28;;;;;;;1.95;1.50;;;26.20;50.00;;;;;;5020637;27;87219;-83
2022/08/15 01:49:01;;;;;;;2.00;1.70;;;26.20;49.90;;;;;;5020659;28;87380;-83
2022/08/15 01:51:27;;;;;;;2.45;1.60;;;26.20;50.00;;;;;;5021180;27;87525;-83
2022/08/15 01:54:00;;;;;;;2.00;1.60;;;26.20;50.10;;;;;;5021083;27;86968;-83
2022/08/15 01:56:32;;;;;;;1.90;1.70;;;26.20;50.00;;;;;;5019543;27;86905;-83
2022/08/15 01:58:58;;;;;;;1.95;1.60;;;26.20;50.00;;;;;;5019231;28;90375;-82
2022/08/15 02:01:47;;;;;;;2.15;1.67;;;26.20;49.90;;;;;;5020090;28;88362;-83
2022/08/15 02:04:14;;;;;;;1.90;1.70;;;26.20;50.00;;;;;;5020457;27;87929;-83
2022/08/15 02:06:43;;;;;;;2.15;1.50;;;26.20;50.00;;;;;;5019921;27;90890;-83
2022/08/15 02:09:12;;;;;;;1.50;1.40;;;26.20;50.00;;;;;;5020369;27;87374;-83
2022/08/15 02:11:39;;;;;;;2.58;1.88;;;26.20;50.00;;;;;;5019892;28;87314;-83
2022/08/15 02:14:05;;;;;;;1.70;1.60;;;26.20;50.00;;;;;;5020284;28;86976;-84
2022/08/15 02:16:35;;;;;;;3.53;1.67;;;26.20;49.90;;;;;;5020660;27;87560;-83
2022/08/15 02:19:03;;;;;;;2.03;1.50;;;26.20;50.00;;;;;;5019287;27;88677;-83
2022/08/15 02:21:29;;;;;;;1.60;1.50;;;26.20;50.70;;;;;;5020074;27;87266;-83
2022/08/15 02:23:56;;;;;;;1.50;1.40;;;26.20;50.00;;;;;;5019085;28;88066;-83
2022/08/15 02:26:22;;;;;;;1.73;1.60;;;26.20;50.10;;;;;;5020244;28;87407;-82
2022/08/15 02:28:48;;;;;;;1.88;1.40;;;26.20;50.00;;;;;;5019398;28;89124;-82
2022/08/15 02:31:22;;;;;;;1.63;1.35;;;26.20;49.90;;;;;;5018648;27;87852;-83
2022/08/15 02:33:51;;;;;;;2.40;1.85;;;26.20;50.00;;;;;;5016180;28;87474;-83
2022/08/15 02:36:18;;;;;;;1.73;1.63;;;26.20;49.90;;;;;;5017598;28;88594;-83
2022/08/15 02:38:45;;;;;;;1.63;1.52;;;26.20;50.00;;;;;;5016583;28;88612;-83
2022/08/15 02:41:19;;;;;;;1.90;1.60;;;26.20;50.00;;;;;;5019309;28;88397;-83
2022/08/15 02:43:46;;;;;;;2.17;1.75;;;26.20;50.00;;;;;;5018682;28;87179;-83
2022/08/15 02:46:16;;;;;;;1.75;1.33;;;26.20;50.10;;;;;;5018344;28;86919;-82
2022/08/15 02:48:42;;;;;;;1.35;1.25;;;26.20;50.00;;;;;;5018444;27;88575;-83
2022/08/15 02:51:09;;;;;;;1.60;1.50;;;26.20;50.20;;;;;;5018639;27;88690;-82
2022/08/15 02:53:35;;;;;;;2.55;1.80;;;26.20;50.20;;;;;;5019234;28;87300;-83
2022/08/15 02:56:03;;;;;;;2.33;2.05;;;26.20;50.10;;;;;;5020533;28;86971;-83
2022/08/15 02:58:28;;;;;;;2.00;1.67;;;26.20;50.10;;;;;;5019806;27;88765;-83
2022/08/15 03:00:54;;;;;;;1.63;1.40;;;26.20;50.10;;;;;;5018700;27;87570;-83
2022/08/15 03:03:20;;;;;;;1.65;1.50;;;26.20;50.10;;;;;;5019179;27;87019;-83
2022/08/15 03:05:48;;;;;;;1.50;1.27;;;26.20;50.10;;;;;;5019103;27;86535;-83
2022/08/15 03:08:14;;;;;;;1.73;1.60;;;26.20;50.00;;;;;;5016074;28;90495;-83
2022/08/15 03:10:41;;;;;;;1.42;1.33;;;26.20;50.00;;;;;;5018467;27;87582;-83
2022/08/15 03:13:13;;;;;;;1.45;1.35;;;26.10;50.20;;;;;;5019053;27;88611;-83
2022/08/15 03:15:45;;;;;;;1.42;1.33;;;26.20;50.10;;;;;;5018773;27;87377;-83
2022/08/15 03:18:11;;;;;;;2.90;1.58;;;26.20;50.10;;;;;;5018236;27;89485;-82
2022/08/15 03:20:37;;;;;;;1.70;1.52;;;26.20;50.20;;;;;;5018949;28;88015;-83
2022/08/15 03:23:07;;;;;;;2.33;1.73;;;26.20;50.20;;;;;;5019322;28;88206;-83
2022/08/15 03:25:38;;;;;;;1.48;1.35;;;26.10;50.10;;;;;;5018911;27;87870;-83
2022/08/15 03:28:04;;;;;;;1.45;1.35;;;26.20;50.40;;;;;;5017782;28;90151;-83
2022/08/15 03:30:29;;;;;;;1.75;1.65;;;26.20;50.40;;;;;;5018273;27;87873;-82
2022/08/15 03:32:58;;;;;;;1.70;1.60;;;26.20;50.00;;;;;;5018326;28;87010;-83
2022/08/15 03:35:27;;;;;;;1.40;1.30;;;26.10;50.00;;;;;;5018870;27;87071;-83
2022/08/15 03:37:53;;;;;;;1.73;1.40;;;26.10;50.00;;;;;;5018065;28;91950;-83
2022/08/15 03:40:19;;;;;;;2.15;1.55;;;26.10;50.30;;;;;;5016908;28;92611;-83
2022/08/15 03:43:00;;;;;;;2.08;1.55;;;26.10;50.20;;;;;;5017025;28;87545;-83
2022/08/15 03:45:27;;;;;;;1.80;1.70;;;26.20;50.30;;;;;;5017905;27;87426;-82
2022/08/15 03:47:53;;;;;;;2.10;1.70;;;26.10;50.20;;;;;;5018889;28;87279;-84
2022/08/15 03:50:20;;;;;;;1.70;1.48;;;26.10;50.30;;;;;;5018445;28;86894;-82
2022/08/15 03:53:00;;;;;;;1.63;1.40;;;26.20;50.40;;;;;;5018830;28;86884;-83
2022/08/15 03:55:28;;;;;;;1.45;1.30;;;26.10;50.20;;;;;;5016479;28;89403;-83
2022/08/15 03:57:55;;;;;;;1.50;1.40;;;26.20;50.40;;;;;;5017668;28;89253;-83
2022/08/15 04:00:26;;;;;;;1.60;1.50;;;26.20;50.30;;;;;;5017859;28;90059;-83
2022/08/15 04:02:53;;;;;;;1.42;1.33;;;26.20;50.40;;;;;;5016163;28;88682;-82
2022/08/15 04:05:20;;;;;;;1.48;1.38;;;26.10;50.20;;;;;;5018708;27;88166;-83
2022/08/15 04:07:46;;;;;;;1.67;1.40;;;26.10;50.30;;;;;;5034465;28;89387;-82
2022/08/15 04:10:16;;;;;;;2.20;1.67;;;26.10;50.10;;;;;;5016705;28;87584;-83
2022/08/15 04:12:43;;;;;;;1.60;1.50;;;26.10;50.20;;;;;;5018024;28;87627;-84
2022/08/15 04:15:12;;;;;;;1.50;1.40;;;26.10;50.30;;;;;;5018311;27;87376;-83
2022/08/15 04:17:38;;;;;;;1.52;1.42;;;26.10;50.10;;;;;;5017960;28;86984;-83
2022/08/15 04:20:07;;;;;;;1.98;1.50;;;26.10;50.40;;;;;;5021452;28;90962;-83
2022/08/15 04:22:45;;;;;;;1.90;1.40;;;26.20;50.20;;;;;;5022128;27;87194;-83
2022/08/15 04:25:29;;;;;;;1.45;1.35;;;26.10;50.30;;;;;;5021379;28;86934;-83
2022/08/15 04:27:58;;;;;;;1.40;1.30;;;26.20;50.50;;;;;;5019852;28;92670;-83
2022/08/15 04:30:28;;;;;;;1.60;1.50;;;26.20;50.50;;;;;;5022030;28;89144;-83
2022/08/15 04:33:04;;;;;;;2.10;1.65;;;26.10;50.30;;;;;;5020713;28;87163;-83
2022/08/15 04:35:30;;;;;;;1.50;1.40;;;26.10;50.30;;;;;;5021310;28;87552;-83
2022/08/15 04:37:57;;;;;;;1.52;1.42;;;26.10;50.40;;;;;;5022920;28;88661;-83
2022/08/15 04:40:23;;;;;;;1.70;1.50;;;26.10;50.40;;;;;;5019369;28;90439;-83
2022/08/15 04:42:53;;;;;;;1.65;1.55;;;26.10;50.40;;;;;;5021970;27;87229;-83
2022/08/15 04:45:20;;;;;;;1.85;1.55;;;26.10;51.10;;;;;;5020700;28;90539;-83
2022/08/15 04:47:46;;;;;;;2.05;1.63;;;26.10;50.40;;;;;;5021183;27;88783;-82
2022/08/15 04:50:12;;;;;;;1.42;1.33;;;26.10;50.50;;;;;;5022671;28;87911;-82
2022/08/15 04:52:51;;;;;;;1.52;1.42;;;26.10;50.40;;;;;;5021210;27;88194;-83
2022/08/15 04:55:19;;;;;;;1.83;1.73;;;26.10;50.30;;;;;;5021217;27;87775;-83
2022/08/15 04:57:45;;;;;;;1.60;1.50;;;26.10;50.40;;;;;;5021917;28;87146;-83
2022/08/15 05:00:14;;;;;;;1.60;1.50;;;26.10;50.50;;;;;;5020635;27;87013;-83
2022/08/15 05:02:40;;;;;;;1.85;1.60;;;26.10;50.40;;;;;;5021764;27;87502;-83
2022/08/15 05:05:09;;;;;;;1.42;1.33;;;26.10;50.50;;;;;;5021632;28;87120;-83
2022/08/15 05:07:35;;;;;;;2.80;1.58;;;26.10;50.30;;;;;;5021319;28;88396;-83
2022/08/15 05:10:02;;;;;;;1.48;1.38;;;26.10;50.60;;;;;;5020454;28;91823;-83
2022/08/15 05:12:29;;;;;;;1.35;1.25;;;26.10;50.60;;;;;;5021070;28;87419;-83
2022/08/15 05:14:56;;;;;;;1.83;1.48;;;26.10;50.50;;;;;;5020329;27;87398;-83
2022/08/15 05:17:22;;;;;;;1.50;1.40;;;26.10;50.50;;;;;;5018390;28;92367;-83
2022/08/15 05:19:48;;;;;;;1.70;1.60;;;26.10;50.50;;;;;;5022066;28;88802;-83
2022/08/15 05:22:16;;;;;;;1.38;1.27;;;26.10;50.60;;;;;;5037480;27;87562;-83
2022/08/15 05:24:42;;;;;;;1.50;1.40;;;26.10;50.40;;;;;;5025074;28;86953;-83
2022/08/15 05:27:08;;;;;;;1.40;1.30;;;26.10;50.50;;;;;;5018345;28;87603;-83
2022/08/15 05:29:33;;;;;;;1.20;1.10;;;26.10;50.50;;;;;;5018030;28;88239;-83
2022/08/15 05:31:59;;;;;;;1.40;1.30;;;26.10;50.50;;;;;;5001486;28;87001;-82
2022/08/15 05:34:27;;;;;;;1.70;1.35;;;26.10;50.30;;;;;;5018356;28;86249;-83
2022/08/15 05:36:53;;;;;;;1.50;1.40;;;26.10;50.50;;;;;;5017566;28;90430;-83
2022/08/15 05:39:27;;;;;;;2.03;1.30;;;26.10;50.40;;;;;;4977545;28;89954;-83
2022/08/15 05:42:12;;;;;;;1.55;1.38;;;26.10;50.40;;;;;;4976800;28;88680;-83
2022/08/15 05:45:05;;;;;;;1.50;1.40;;;26.10;50.50;;;;;;4978270;28;86940;-83
2022/08/15 05:47:40;;;;;;;1.58;1.40;;;26.10;50.70;;;;;;4977125;28;88046;-83
2022/08/15 05:50:14;;;;;;;2.65;1.58;;;26.10;50.50;;;;;;4978579;28;88411;-83
2022/08/15 05:52:54;;;;;;;1.90;1.50;;;26.10;50.50;;;;;;4977082;28;87584;-83
2022/08/15 05:55:20;;;;;;;1.35;1.25;;;26.10;50.70;;;;;;4977595;28;87627;-83
2022/08/15 05:58:16;;;;;;;2.08;1.58;;;26.10;50.60;;;;;;4977823;28;88698;-83
2022/08/15 06:00:50;;;;;;;1.58;1.48;;;26.10;50.70;;;;;;4977131;28;87321;-83
2022/08/15 06:03:24;;;;;;;1.50;1.27;;;26.10;50.70;;;;;;4979383;28;87367;-83
2022/08/15 06:05:54;;;;;;;1.60;1.25;;;26.10;50.60;;;;;;4977394;28;87806;-82
2022/08/15 06:08:29;;;;;;;1.88;1.25;;;26.10;50.50;;;;;;4976953;28;91418;-82
2022/08/15 06:11:03;;;;;;;1.35;1.25;;;26.10;50.70;;;;;;4994008;28;88415;-83
2022/08/15 06:13:40;;;;;;;1.30;1.10;;;26.10;50.70;;;;;;4998857;28;87372;-83
2022/08/15 06:16:48;;;;;;;1.50;1.40;;;26.10;50.50;;;;;;4991859;28;87036;-84
2022/08/15 06:19:26;;;;;;;4.18;1.90;;;26.10;50.60;;;;;;5013420;28;87718;-82
2022/08/15 06:22:19;;;;;;;2.78;2.00;;;26.10;52.00;;;;;;5000725;28;91496;-85
2022/08/15 06:25:02;;;;;;;6.60;2.03;;;26.10;52.30;;;;;;5016629;28;87649;-84
2022/08/15 06:27:30;;;;;;;8.15;2.20;;;26.10;52.50;;;;;;5016768;28;89492;-84
2022/08/15 06:30:08;;;;;;;6.63;2.23;;;26.10;52.90;;;;;;5017691;28;88712;-83
2022/08/15 06:32:57;;;;;;;4.63;2.38;;;26.10;53.30;;;;;;5018110;28;87903;-83
2022/08/15 06:35:58;;;;;;;4.40;2.58;;;26.00;53.80;;;;;;5018079;28;87959;-83
2022/08/15 06:39:05;;;;;;;5.22;2.30;;;26.00;54.30;;;;;;4926527;28;87684;-84
2022/08/15 06:41:51;;;;;;;6.82;3.03;;;26.00;54.50;;;;;;4851242;29;87812;-83
2022/08/15 06:44:18;;;;;;;6.10;2.58;;;26.00;54.60;;;;;;4852641;29;88468;-83
2022/08/15 06:46:44;;;;;;;7.15;3.20;;;26.10;54.70;;;;;;4852663;29;87306;-84
2022/08/15 06:49:13;;;;;;;9.38;3.13;;;26.10;54.70;;;;;;4846659;29;87677;-83
2022/08/15 06:51:41;;;;;;;7.37;2.67;;;26.00;55.00;;;;;;4832932;29;93633;-84
2022/08/15 06:54:11;;;;;;;7.70;3.00;;;26.00;54.70;;;;;;4840195;29;91636;-84
2022/08/15 06:56:38;;;;;;;6.70;2.67;;;26.00;54.80;;;;;;4841775;29;92704;-85
2022/08/15 06:59:21;;;;;;;5.40;3.22;;;26.00;55.00;;;;;;4842531;29;92132;-85
2022/08/15 07:01:52;;;;;;;6.80;2.97;;;25.90;55.00;;;;;;4824245;29;101638;-85
2022/08/15 07:04:25;;;;;;;5.68;2.17;;;25.90;54.80;;;;;;4840446;29;96141;-85
2022/08/15 07:07:12;;;;;;;4.03;2.45;;;25.90;54.90;;;;;;4841766;29;92106;-85
2022/08/15 07:09:46;;;;;;;5.28;2.60;;;25.90;55.20;;;;;;4839736;29;97730;-85
2022/08/15 07:12:47;;;;;;;6.50;3.10;;;25.90;55.20;;;;;;4839610;29;93750;-85
2022/08/15 07:15:36;;;;;;;6.55;2.40;;;25.90;55.30;;;;;;4891406;28;93432;-85
2022/08/15 07:18:10;;;;;;;23.50;6.05;;;25.90;55.50;;;;;;4913415;28;92399;-84
2022/08/15 07:20:36;;;;;;;51.60;11.65;;;26.00;55.30;;;;;;4993696;28;91836;-85
2022/08/15 07:23:35;;;;;;;50.20;10.23;;;25.90;55.30;;;;;;4992999;28;93767;-85
2022/08/15 07:26:11;;;;;;;28.73;7.25;;;25.90;55.70;;;;;;4925627;28;100718;-86
2022/08/15 07:28:43;;;;;;;23.45;6.60;;;25.90;55.90;;;;;;4938336;28;93788;-87
2022/08/15 07:31:27;;;;;;;25.98;6.00;;;25.90;55.50;;;;;;4925899;28;92210;-85
2022/08/15 07:33:56;;;;;;;13.88;5.07;;;25.90;55.80;;;;;;4938515;28;96140;-84
2022/08/15 07:36:31;;;;;;;15.30;4.78;;;25.90;55.90;;;;;;4940124;28;96272;-86
2022/08/15 07:38:57;;;;;;;11.48;5.25;;;25.90;56.10;;;;;;4908849;28;92192;-86
2022/08/15 07:41:32;;;;;;;32.03;9.70;;;25.80;56.30;;;;;;4926615;28;92398;-86
2022/08/15 07:43:59;;;;;;;63.00;15.50;;;25.90;56.10;;;;;;4927905;28;92737;-85
2022/08/15 07:46:48;;;;;;;74.55;17.27;;;25.80;56.30;;;;;;4925005;28;92631;-86
2022/08/15 07:49:29;;;;;;;57.08;12.73;;;25.80;56.40;;;;;;4915773;28;92024;-84
2022/08/15 07:52:03;;;;;;;40.22;10.93;;;25.80;56.60;;;;;;4924456;28;91991;-87
2022/08/15 07:54:46;;;;;;;33.97;9.88;;;25.80;56.90;;;;;;4872380;28;94106;-86
2022/08/15 07:57:28;;;;;;;18.15;6.55;;;25.80;57.00;;;;;;4947645;28;94092;-85
2022/08/15 08:00:15;;;;;;;14.00;5.32;;;25.80;57.10;;;;;;4966100;28;92328;-84
2022/08/15 08:03:20;;;;;;;12.90;4.70;;;25.80;56.70;;;;;;5010378;27;92065;-85
2022/08/15 08:06:00;;;;;;;15.57;4.78;;;25.80;56.60;;;;;;5010014;27;97076;-84
2022/08/15 08:08:48;;;;;;;11.27;3.50;;;25.80;56.80;;;;;;4995727;28;92290;-85
2022/08/15 08:11:42;;;;;;;11.20;3.78;;;25.80;56.50;;;;;;4986409;28;92433;-85
2022/08/15 08:14:33;;;;;;;7.63;3.40;;;25.90;56.70;;;;;;4995889;28;92294;-84
2022/08/15 08:17:13;;;;;;;10.63;3.40;;;25.90;56.30;;;;;;5015992;28;98048;-86
2022/08/15 08:19:52;;;;;;;8.55;3.10;;;25.90;56.40;;;;;;5030873;28;96227;-85
2022/08/15 08:22:29;;;;;;;7.35;3.50;;;25.90;56.50;;;;;;5015189;28;93417;-84
2022/08/15 08:25:13;;;;;;;7.07;3.10;;;25.90;56.70;;;;;;5017228;27;92419;-85
2022/08/15 08:27:44;;;;;;;8.27;3.47;;;25.90;56.20;;;;;;5016630;28;92622;-86
2022/08/15 08:31:02;;;;;;;9.13;3.55;;;25.90;56.10;;;;;;5015608;28;92430;-86
2022/08/15 08:33:54;;;;;;;3.72;2.70;;;26.00;56.30;;;;;;5001678;28;92171;-85
2022/08/15 08:36:27;;;;;;;6.05;3.50;;;25.90;56.00;;;;;;5005157;28;92119;-85
2022/08/15 08:39:15;;;;;;;8.18;2.83;;;25.90;56.10;;;;;;5003076;28;93589;-85
2022/08/15 08:42:10;;;;;;;8.55;2.90;;;25.90;56.30;;;;;;5003218;28;93145;-84
2022/08/15 08:44:43;;;;;;;11.63;3.83;;;25.90;56.50;;;;;;5004369;28;92321;-84
2022/08/15 08:47:20;;;;;;;9.95;2.92;;;26.00;56.20;;;;;;5004256;28;92633;-84
2022/08/15 08:49:47;;;;;;;5.50;2.90;;;26.00;56.50;;;;;;5010689;28;101588;-85
2022/08/15 08:52:15;;;;;;;6.03;3.13;;;26.00;56.30;;;;;;5003202;28;94830;-84
2022/08/15 08:54:57;;;;;;;7.53;3.00;;;26.00;56.50;;;;;;5002498;28;92234;-85
2022/08/15 08:57:28;;;;;;;7.07;2.80;;;26.00;56.20;;;;;;5001893;28;92061;-81
2022/08/15 09:00:13;;;;;;;7.22;3.22;;;26.00;56.40;;;;;;5001663;28;93072;-84
2022/08/15 09:02:52;;;;;;;5.55;3.13;;;25.90;56.50;;;;;;4991537;28;96234;-82
2022/08/15 09:05:26;;;;;;;6.90;3.20;;;25.90;56.40;;;;;;4994399;28;92453;-84
2022/08/15 09:07:56;;;;;;;4.50;3.00;;;25.90;56.30;;;;;;5006139;28;91667;-84
2022/08/15 09:10:32;;;;;;;6.18;3.20;;;25.90;56.40;;;;;;5014592;28;92828;-81
2022/08/15 09:15:47;;;;;;;4.68;3.00;;;25.90;56.10;;;;;;5017719;27;93589;-83
2022/08/15 09:18:36;;;;;;;4.40;2.92;;;25.90;56.00;;;;;;5018618;27;92364;-83
2022/08/15 09:21:04;;;;;;;6.07;3.25;;;25.80;56.30;;;;;;5016472;27;93302;-84
2022/08/15 09:23:36;;;;;;;6.82;3.00;;;25.80;56.20;;;;;;5016988;28;94389;-82
2022/08/15 09:26:14;;;;;;;5.72;3.03;;;25.80;56.30;;;;;;5017689;28;92316;-83
2022/08/15 09:29:15;;;;;;;4.57;3.60;;;25.90;56.20;;;;;;5017403;28;92090;-83
2022/08/15 09:31:43;;;;;;;7.43;3.20;;;25.80;55.90;;;;;;5017945;27;93710;-83
2022/08/15 09:34:47;;;;;;;6.18;3.45;;;25.90;56.00;;;;;;5017732;28;93179;-82
2022/08/15 09:37:21;;;;;;;9.13;3.63;;;25.90;55.70;;;;;;5017640;28;92157;-83
2022/08/15 09:40:17;;;;;;;8.05;3.53;;;25.90;56.50;;;;;;5018301;27;92080;-83
2022/08/15 09:42:42;;;;;;;9.77;3.45;;;25.90;56.00;;;;;;5014979;28;95404;-84
2022/08/15 09:45:39;;;;;;;8.32;3.53;;;26.00;56.00;;;;;;5017928;28;93057;-83
2022/08/15 09:48:07;;;;;;;8.80;4.18;;;25.90;56.00;;;;;;5028035;27;93553;-84
2022/08/15 09:50:51;;;;;;;17.60;4.43;;;26.00;55.90;;;;;;4999595;28;92084;-83
2022/08/15 09:53:29;;;;;;;12.35;4.15;;;26.00;56.30;;;;;;5015549;28;92638;-83
2022/08/15 09:56:02;;;;;;;11.65;4.40;;;26.10;56.60;;;;;;5012830;28;100508;-83
2022/08/15 09:58:49;;;;;;;15.15;4.40;;;26.10;56.60;;;;;;5017485;27;92350;-83
2022/08/15 10:01:20;;;;;;;14.50;4.15;;;26.20;56.50;;;;;;5016792;28;91312;-83
2022/08/15 10:03:46;;;;;;;16.02;4.50;;;26.20;56.70;;;;;;5015289;28;94129;-82
2022/08/15 10:06:15;;;;;;;19.08;4.28;;;26.20;57.00;;;;;;5015264;27;93012;-86
2022/08/15 10:08:53;;;;;;;27.35;4.70;;;26.30;57.30;;;;;;5028303;27;92975;-86
2022/08/15 10:11:50;;;;;;;12.40;4.35;;;26.30;57.50;;;;;;5012403;27;92048;-84
2022/08/15 10:14:19;;;;;;;14.25;3.92;;;26.40;57.60;;;;;;5013531;28;93867;-86
2022/08/15 10:16:47;;;;;;;13.48;4.32;;;26.50;57.50;;;;;;5011822;28;97511;-86
2022/08/15 10:19:29;;;;;;;11.48;4.05;;;26.50;57.30;;;;;;5012060;28;92491;-85
2022/08/15 10:21:56;;;;;;;12.68;4.25;;;26.50;57.30;;;;;;5010104;27;91991;-85
2022/08/15 10:24:32;;;;;;;8.55;3.65;;;26.50;57.30;;;;;;5011010;27;93822;-82
2022/08/15 10:27:15;;;;;;;12.35;4.07;;;26.50;57.40;;;;;;5007668;28;95083;-83
2022/08/15 10:29:47;;;;;;;6.32;3.60;;;26.50;57.30;;;;;;4995576;28;92568;-81
2022/08/15 10:32:28;;;;;;;9.57;4.18;;;26.50;57.00;;;;;;5013215;28;92495;-82
2022/08/15 10:35:24;;;;;;;11.48;3.78;;;26.40;57.00;;;;;;5009583;28;101648;-83
2022/08/15 10:37:58;;;;;;;9.73;4.50;;;26.40;57.00;;;;;;5012386;28;98147;-82
2022/08/15 10:40:27;;;;;;;9.80;4.38;;;26.40;56.90;;;;;;5014283;28;92178;-83
2022/08/15 10:43:21;;;;;;;8.77;4.10;;;26.40;56.70;;;;;;5013906;28;99415;-81
2022/08/15 10:46:17;;;;;;;10.43;4.18;;;26.40;56.90;;;;;;5013993;28;92685;-82
2022/08/15 10:48:49;;;;;;;8.57;4.70;;;26.40;56.90;;;;;;5010094;28;95999;-81
2022/08/15 10:51:40;;;;;;;13.85;4.70;;;26.40;56.90;;;;;;4995328;28;92965;-82
2022/08/15 10:54:24;;;;;;;13.50;4.72;;;26.40;57.90;;;;;;5001760;28;91586;-83
2022/08/15 10:56:54;;;;;;;8.88;3.97;;;26.30;57.70;;;;;;5009492;27;96487;-84
2022/08/15 10:59:27;;;;;;;6.43;3.80;;;26.20;57.70;;;;;;4984514;28;95041;-84
2022/08/15 11:02:47;;;;;;;5.55;3.92;;;26.20;57.60;;;;;;4987569;28;92983;-85
2022/08/15 11:05:15;;;;;;;12.48;4.80;;;26.20;57.90;;;;;;4913000;28;95698;-84
2022/08/15 11:07:50;;;;;;;10.48;4.68;;;26.20;57.80;;;;;;4915908;28;93061;-85
2022/08/15 11:10:19;;;;;;;11.13;4.60;;;26.20;57.70;;;;;;4906088;28;95216;-84
2022/08/15 11:12:48;;;;;;;8.65;4.13;;;26.20;57.50;;;;;;4913431;28;92451;-82
2022/08/15 11:15:25;;;;;;;10.23;4.43;;;26.20;57.20;;;;;;4912631;28;92511;-83
2022/08/15 11:18:04;;;;;;;10.52;4.72;;;26.20;57.30;;;;;;4911927;28;93294;-84
2022/08/15 11:20:52;;;;;;;11.70;4.93;;;26.20;57.30;;;;;;4913650;28;93252;-83
2022/08/15 11:23:33;;;;;;;10.45;4.22;;;26.30;57.40;;;;;;4914280;28;92042;-83
2022/08/15 11:26:00;;;;;;;13.55;4.60;;;26.30;57.40;;;;;;4912761;28;92949;-84
2022/08/15 11:28:28;;;;;;;10.63;4.22;;;26.30;57.30;;;;;;4912382;28;96588;-83
2022/08/15 11:31:07;;;;;;;9.48;4.18;;;26.30;56.80;;;;;;4897321;28;94867;-83
2022/08/15 11:33:41;;;;;;;16.52;4.28;;;26.40;57.20;;;;;;4911954;28;91986;-82
2022/08/15 11:36:16;;;;;;;12.38;4.80;;;26.40;57.10;;;;;;4911116;28;92461;-83
2022/08/15 11:38:47;;;;;;;14.50;4.30;;;26.50;57.80;;;;;;4917919;28;96136;-83
2022/08/15 11:41:27;;;;;;;10.60;4.50;;;26.50;57.90;;;;;;4925010;28;94288;-82
2022/08/15 11:43:54;;;;;;;18.63;4.47;;;26.50;57.70;;;;;;5012840;28;92197;-82
2022/08/15 11:46:21;;;;;;;16.13;4.82;;;26.60;57.40;;;;;;5012318;27;91611;-82
2022/08/15 11:48:57;;;;;;;22.15;4.35;;;26.50;57.30;;;;;;5011718;28;95168;-82
2022/08/15 11:51:27;;;;;;;19.25;4.38;;;26.50;57.30;;;;;;5010803;28;92962;-82
2022/08/15 11:54:02;;;;;;;17.77;4.70;;;26.50;56.60;;;;;;5011733;28;93007;-83
2022/08/15 11:56:56;;;;;;;12.07;4.55;;;26.50;56.60;;;;;;5012829;28;92521;-83
2022/08/15 11:59:37;;;;;;;11.73;4.45;;;26.50;56.90;;;;;;5010511;27;92082;-81
2022/08/15 12:02:05;;;;;;;10.57;4.15;;;26.50;57.20;;;;;;5013237;28;92853;-82
2022/08/15 12:04:34;;;;;;;11.87;4.33;;;26.50;56.80;;;;;;5012399;28;91981;-82
2022/08/15 12:07:19;;;;;;;8.85;4.03;;;26.50;56.50;;;;;;5012488;27;92161;-81
2022/08/15 12:09:52;;;;;;;8.75;3.80;;;26.40;56.20;;;;;;5010254;28;95046;-82
2022/08/15 12:12:28;;;;;;;8.90;3.75;;;26.30;56.20;;;;;;5011498;27;92271;-82
2022/08/15 12:15:18;;;;;;;9.75;3.88;;;26.30;56.50;;;;;;5012273;27;92549;-83
2022/08/15 12:18:00;;;;;;;7.68;4.65;;;26.30;56.60;;;;;;5009706;28;92201;-82
2022/08/15 12:21:07;;;;;;;8.77;4.85;;;26.30;56.50;;;;;;5010257;28;95891;-83
2022/08/15 12:23:45;;;;;;;7.38;4.38;;;26.30;56.20;;;;;;5008886;28;95165;-82
2022/08/15 12:26:13;;;;;;;7.93;3.80;;;26.30;56.30;;;;;;5011975;28;92032;-83
2022/08/15 12:28:40;;;;;;;7.47;3.95;;;26.30;56.70;;;;;;5009403;28;92094;-82
2022/08/15 12:31:14;;;;;;;7.57;4.03;;;26.20;57.20;;;;;;5013069;28;93823;-86
2022/08/15 12:33:41;;;;;;;8.80;4.40;;;26.20;57.40;;;;;;5011946;28;94725;-88
2022/08/15 12:36:07;;;;;;;6.93;3.88;;;26.20;57.40;;;;;;5015124;28;92409;-87
2022/08/15 12:38:35;;;;;;;5.72;3.75;;;26.30;57.40;;;;;;5014567;28;91564;-86
2022/08/15 12:41:01;;;;;;;6.97;4.10;;;26.30;57.70;;;;;;5017993;28;96740;-87
2022/08/15 12:43:28;;;;;;;11.55;3.83;;;26.30;57.50;;;;;;5017363;27;92446;-86
2022/08/15 12:45:53;;;;;;;8.35;3.85;;;26.30;57.40;;;;;;5018650;27;93411;-86
2022/08/15 12:48:29;;;;;;;5.70;3.63;;;26.30;57.60;;;;;;5018469;27;92097;-87
2022/08/15 12:50:55;;;;;;;8.50;3.90;;;26.40;57.40;;;;;;5018131;27;92539;-86
2022/08/15 12:53:22;;;;;;;7.07;4.07;;;26.30;57.50;;;;;;5016980;27;94715;-87
2022/08/15 12:55:49;;;;;;;7.03;4.03;;;26.30;57.50;;;;;;5018504;28;91917;-87
2022/08/15 12:58:18;;;;;;;10.40;3.67;;;26.30;57.30;;;;;;5018134;27;92120;-87
2022/08/15 13:00:46;;;;;;;4.03;3.55;;;26.40;57.00;;;;;;5016824;27;93420;-86
2022/08/15 13:03:21;;;;;;;9.13;4.07;;;26.40;57.00;;;;;;5017665;27;93386;-86
2022/08/15 13:06:03;;;;;;;6.07;4.03;;;26.30;56.50;;;;;;5017012;27;92428;-86
2022/08/15 13:08:29;;;;;;;6.88;3.92;;;26.30;56.60;;;;;;5017872;27;92539;-88
2022/08/15 13:10:55;;;;;;;5.95;4.07;;;26.30;56.30;;;;;;5017677;28;93427;-89
2022/08/15 13:13:21;;;;;;;8.32;4.10;;;26.30;56.00;;;;;;5018119;28;93353;-86
2022/08/15 13:15:48;;;;;;;8.27;3.33;;;26.30;55.80;;;;;;5018158;27;92288;-89
2022/08/15 13:18:19;;;;;;;8.65;3.80;;;26.30;55.70;;;;;;5015354;28;91872;-88
2022/08/15 13:23:38;;;;;;;8.02;4.10;;;26.20;55.80;;;;;;5016453;27;91966;-87
2022/08/15 13:26:08;;;;;;;7.05;4.10;;;26.20;55.50;;;;;;5018506;28;91938;-86